createdAt,value
2023-04-16T00:05:08.919Z,5.5
2023-04-16T00:35:16.494Z,7.6
2023-04-16T01:05:11.771Z,9
2023-04-16T01:35:12.070Z,4.8
2023-04-16T02:05:15.175Z,3.5
2023-04-16T02:35:14.313Z,5.2
2023-04-16T03:05:15.859Z,7.2
2023-04-16T03:35:17.058Z,7.7
2023-04-16T04:05:17.553Z,11
2023-04-16T04:35:19.159Z,11.1
2023-04-16T05:05:21.500Z,12.4
2023-04-16T05:35:21.510Z,15.1
2023-04-16T06:05:22.238Z,10.4
2023-04-16T06:35:24.036Z,14.5
2023-04-16T07:05:24.447Z,9.6
2023-04-16T07:35:25.520Z,9.4
2023-04-16T08:05:26.827Z,10.2
2023-04-16T08:35:30.924Z,11.1
2023-04-16T09:05:29.130Z,9.6
2023-04-16T09:35:30.149Z,12.6
2023-04-16T10:05:31.205Z,12.9
2023-04-16T10:35:34.090Z,11
2023-04-16T11:05:48.678Z,12.8
2023-04-16T11:35:34.592Z,14.5
2023-04-16T12:05:38.643Z,17.8
2023-04-16T12:35:38.133Z,13.6
2023-04-16T13:05:39.724Z,14
2023-04-16T13:35:41.940Z,13
2023-04-16T14:05:43.599Z,13.4
2023-04-16T14:35:46.167Z,14.8
2023-04-16T15:05:50.787Z,16.6
2023-04-16T15:35:51.619Z,16.2
2023-04-16T16:05:51.817Z,14.5
2023-04-16T16:35:53.421Z,13.9
2023-04-16T17:05:55.584Z,14.1
2023-04-16T17:35:56.774Z,14.8
2023-04-16T18:06:01.431Z,16.9
2023-04-16T18:36:01.130Z,18.5
2023-04-16T19:06:02.684Z,15.9
2023-04-16T19:36:03.195Z,17.8
2023-04-16T20:06:05.375Z,17.2
2023-04-16T20:36:05.685Z,17.4
2023-04-16T21:06:06.449Z,18.4
2023-04-16T21:36:08.218Z,18.5
2023-04-16T22:06:09.012Z,19.4
2023-04-16T22:36:10.562Z,18.2
2023-04-16T23:06:13.533Z,17.3
2023-04-16T23:36:14.083Z,18.1
